KPBH

Price County Airport

Phillips, Wisconsin, USA
METAR KPBH 280115Z AUTO 00000KT 10SM CLR 23/17 A2988 RMK AO2 T02270167
Observed Flight Rules
May-28 @ 01:15 UTC (7 minutes ago) Visual Flight Rules
Visibility Clouds
10 miles
  • Clear skies
Temperatures Readings
Current 23°C / 73°F
Dewpoint 17°C / 63°F
Humidity 69%
Altimeter 29.88" Hg
Pressure 1012 hPa
Elevation 449
METAR KPBH 280115Z AUTO 00000KT 10SM CLR 23/17 A2988 RMK AO2 T02270167
Observed Flight Rules
May-28 @ 01:15 UTC
(7 minutes ago)
VFR
Clouds
  • Clear skies
Temperature Dewpoint
23°C / 73°F 17°C / 63°F
Humidity Altimeter Pressure
69% 29.88" Hg 1012 hPa